Aston, Pennsylvania
Current Conditions -  °F | °C
As of 2:54 AM on Saturday 22 Nov 2014 (Local Time) from KPHL Reporting Station
Clear Clear  
Wind Chill: 18°   Ceiling: Unl
Heat Index: 25°   Visibility: 10mi
Dew Point: 10°   Wind: 6mph
Humidity: 53%   Direction: 250°WSW
Pressure: 30.54"   Gusts: NA
Location:  39.88°N, 75.45°W
Report Text: KPHL 220754Z 25005KT 10SM CLR M04/M12 A3054 RMK AO2 SLP339 T10391122 $
Loading
Personal Weather Stations






























Interactive Weather Map New forecast layout! Learn more

10-Day Weather Forecast

Advertisements
Track Severe Weather on mobile